createdAt,value
2018-01-25T00:01:38.229Z,2.55
2018-01-25T00:04:05.739Z,2.57
2018-01-25T00:06:33.257Z,2.61
2018-01-25T00:09:00.774Z,2.59
2018-01-25T00:11:28.297Z,2.50
2018-01-25T00:13:55.811Z,2.23
2018-01-25T00:16:23.318Z,2.17
2018-01-25T00:18:50.819Z,2.31
2018-01-25T00:21:18.354Z,2.21
2018-01-25T00:23:45.859Z,2.02
2018-01-25T00:26:13.365Z,1.92
2018-01-25T00:28:40.868Z,1.87
2018-01-25T00:31:08.393Z,2.00
2018-01-25T00:33:35.928Z,1.99
2018-01-25T00:36:03.436Z,1.88
2018-01-25T00:38:31.053Z,1.95
2018-01-25T00:40:58.568Z,1.75
2018-01-25T00:43:26.073Z,1.71
2018-01-25T00:45:54.119Z,1.59
2018-01-25T00:48:21.624Z,1.48
2018-01-25T00:50:49.139Z,1.51
2018-01-25T00:53:16.643Z,1.46
2018-01-25T00:55:44.153Z,1.45
2018-01-25T00:58:11.657Z,1.55
2018-01-25T01:00:39.162Z,1.61
2018-01-25T01:03:06.653Z,1.62
2018-01-25T01:05:34.163Z,1.55
2018-01-25T01:08:01.803Z,1.50
2018-01-25T01:10:29.312Z,1.46
2018-01-25T01:12:56.819Z,1.63
2018-01-25T01:15:24.348Z,1.62
2018-01-25T01:17:51.863Z,1.63
2018-01-25T01:20:19.367Z,1.58
2018-01-25T01:22:46.881Z,1.45
2018-01-25T01:25:14.402Z,1.37
2018-01-25T01:27:41.902Z,1.41
2018-01-25T01:30:09.408Z,1.45
2018-01-25T01:32:36.911Z,1.53
2018-01-25T01:35:04.437Z,1.62
2018-01-25T01:37:31.967Z,1.81
2018-01-25T01:39:59.469Z,1.75
2018-01-25T01:42:27.032Z,1.77
2018-01-25T01:44:54.548Z,1.77
2018-01-25T01:47:22.073Z,1.77
2018-01-25T01:49:49.584Z,1.84
2018-01-25T01:52:17.088Z,1.77
2018-01-25T01:54:44.607Z,1.85
2018-01-25T01:57:12.126Z,1.84
2018-01-25T01:59:39.619Z,1.93
2018-01-25T02:02:07.133Z,1.90
2018-01-25T02:04:34.644Z,1.86
2018-01-25T02:07:02.162Z,2.05
2018-01-25T02:09:29.671Z,2.12
2018-01-25T02:11:57.182Z,2.05
2018-01-25T02:14:24.704Z,2.15
2018-01-25T02:16:53.264Z,2.18
2018-01-25T02:19:20.776Z,2.29
2018-01-25T02:21:48.291Z,2.23
2018-01-25T02:24:15.808Z,2.13
2018-01-25T02:26:43.322Z,2.16
2018-01-25T02:29:10.847Z,2.22
2018-01-25T02:31:38.377Z,2.23
2018-01-25T02:34:05.881Z,2.26
2018-01-25T02:36:33.428Z,2.51
2018-01-25T02:39:00.949Z,2.47
2018-01-25T02:41:28.487Z,2.46
2018-01-25T02:43:56.007Z,2.41
2018-01-25T02:46:23.504Z,2.25
2018-01-25T02:48:51.018Z,2.11
2018-01-25T02:51:18.544Z,2.05
2018-01-25T02:53:46.063Z,2.01
2018-01-25T02:56:13.567Z,2.05
2018-01-25T02:58:41.083Z,2.18
2018-01-25T03:01:08.624Z,2.17
2018-01-25T03:03:36.139Z,2.28
2018-01-25T03:06:03.637Z,2.22
2018-01-25T03:08:31.139Z,1.96
2018-01-25T03:10:58.657Z,2.07
2018-01-25T03:13:26.167Z,2.12
2018-01-25T03:15:54.237Z,2.20
2018-01-25T03:18:21.754Z,2.11
2018-01-25T03:20:49.253Z,2.17
2018-01-25T03:23:16.768Z,2.17
2018-01-25T03:25:44.289Z,2.05
2018-01-25T03:28:11.809Z,2.04
2018-01-25T03:30:39.340Z,2.03
2018-01-25T03:33:06.859Z,2.03
2018-01-25T03:35:34.363Z,2.03
2018-01-25T03:38:01.858Z,2.09
2018-01-25T03:40:29.363Z,1.94
2018-01-25T03:42:56.878Z,1.96
2018-01-25T03:45:25.944Z,1.94
2018-01-25T03:47:53.463Z,2.10
2018-01-25T03:50:20.999Z,2.19
2018-01-25T03:52:48.509Z,2.28
2018-01-25T03:55:16.002Z,2.45
2018-01-25T03:57:43.493Z,2.51
2018-01-25T04:00:11.004Z,2.53
2018-01-25T04:02:38.578Z,2.54
2018-01-25T04:05:06.094Z,2.60
2018-01-25T04:07:33.604Z,2.48
2018-01-25T04:10:01.118Z,2.43
2018-01-25T04:12:28.628Z,2.36
2018-01-25T04:14:56.140Z,2.31
2018-01-25T04:17:23.651Z,2.27
2018-01-25T04:19:51.171Z,2.34
2018-01-25T04:22:18.679Z,2.43
2018-01-25T04:24:46.193Z,2.49
2018-01-25T04:27:13.702Z,2.50
2018-01-25T04:29:41.185Z,2.66
2018-01-25T04:32:08.703Z,2.60
2018-01-25T04:34:36.221Z,2.66
2018-01-25T04:37:03.883Z,2.50
2018-01-25T04:39:31.389Z,2.26
2018-01-25T04:41:58.900Z,2.37
2018-01-25T04:44:26.428Z,2.50
2018-01-25T04:46:53.949Z,2.72
2018-01-25T04:49:21.455Z,2.80
2018-01-25T04:51:48.964Z,2.93
2018-01-25T04:54:16.492Z,2.85
2018-01-25T04:56:43.996Z,2.91
2018-01-25T04:59:11.518Z,2.98
2018-01-25T05:01:39.052Z,2.96
2018-01-25T05:04:06.559Z,2.94
2018-01-25T05:06:34.089Z,3.32
2018-01-25T05:09:01.609Z,2.99
2018-01-25T05:11:29.128Z,2.74
2018-01-25T05:13:56.644Z,2.79
2018-01-25T05:16:24.157Z,3.02
2018-01-25T05:18:51.672Z,2.89
2018-01-25T05:21:19.182Z,2.74
2018-01-25T05:23:46.714Z,2.76
2018-01-25T05:26:14.238Z,2.73
2018-01-25T05:28:41.764Z,3.17
2018-01-25T05:31:09.285Z,3.33
2018-01-25T05:33:36.800Z,3.40
2018-01-25T05:36:04.319Z,3.42
2018-01-25T05:38:31.832Z,3.26
2018-01-25T05:40:59.348Z,3.07
2018-01-25T05:43:26.868Z,2.91
2018-01-25T05:45:55.114Z,2.89
2018-01-25T05:48:22.618Z,2.72
2018-01-25T05:50:50.140Z,2.75
2018-01-25T05:53:17.653Z,2.86
2018-01-25T05:55:45.162Z,3.08
2018-01-25T05:58:12.677Z,3.26
2018-01-25T06:00:40.184Z,3.25
2018-01-25T06:03:07.702Z,3.25
2018-01-25T06:05:35.214Z,3.31
2018-01-25T06:08:02.740Z,3.31
2018-01-25T06:10:30.249Z,3.27
2018-01-25T06:12:57.789Z,3.24
2018-01-25T06:15:25.305Z,3.33
2018-01-25T06:17:52.872Z,3.31
2018-01-25T06:20:20.384Z,3.42
2018-01-25T06:22:47.900Z,3.29
2018-01-25T06:25:15.438Z,3.41
2018-01-25T06:27:42.961Z,3.31
2018-01-25T06:30:10.476Z,3.19
2018-01-25T06:32:38.003Z,3.09
2018-01-25T06:35:05.517Z,2.99
2018-01-25T06:37:33.045Z,3.04
2018-01-25T06:40:00.563Z,3.09
2018-01-25T06:42:28.087Z,3.06
2018-01-25T06:44:55.612Z,3.06
2018-01-25T06:47:23.133Z,3.04
2018-01-25T06:49:50.657Z,2.94
2018-01-25T06:52:18.189Z,3.07
2018-01-25T06:54:45.718Z,2.92
2018-01-25T06:57:13.253Z,2.93
2018-01-25T06:59:40.802Z,2.84
2018-01-25T07:02:08.308Z,2.94
2018-01-25T07:04:35.844Z,2.94
2018-01-25T07:07:03.380Z,2.93
2018-01-25T07:09:31.182Z,2.91
2018-01-25T07:11:58.707Z,3.03
2018-01-25T07:14:26.232Z,3.10
2018-01-25T07:16:53.773Z,3.17
2018-01-25T07:19:21.303Z,3.06
2018-01-25T07:21:48.819Z,3.03
2018-01-25T07:24:16.449Z,3.11
2018-01-25T07:26:43.954Z,3.21
2018-01-25T07:29:11.463Z,3.17
2018-01-25T07:31:39.126Z,3.12
2018-01-25T07:34:06.665Z,3.45
2018-01-25T07:36:34.190Z,3.46
2018-01-25T07:39:01.789Z,3.29
2018-01-25T07:41:29.563Z,3.32
2018-01-25T07:43:57.080Z,3.19
2018-01-25T07:46:24.599Z,3.27
2018-01-25T07:48:52.149Z,3.40
2018-01-25T07:51:19.649Z,3.41
2018-01-25T07:53:47.152Z,3.39
2018-01-25T07:56:14.846Z,3.60
2018-01-25T07:58:42.375Z,3.60
2018-01-25T08:01:09.877Z,3.54
2018-01-25T08:03:37.386Z,3.59
2018-01-25T08:06:04.924Z,3.75
2018-01-25T08:08:32.439Z,3.77
2018-01-25T08:10:59.944Z,3.83
2018-01-25T08:13:33.148Z,3.70
2018-01-25T08:16:06.349Z,3.56
2018-01-25T08:18:33.874Z,3.31
2018-01-25T08:21:01.389Z,3.56
2018-01-25T08:23:28.906Z,3.77
2018-01-25T08:25:56.414Z,3.92
2018-01-25T08:28:23.963Z,3.96
2018-01-25T08:30:51.494Z,4.11
2018-01-25T08:33:19.034Z,4.33
2018-01-25T08:35:46.570Z,4.38
2018-01-25T08:38:14.104Z,4.44
2018-01-25T08:40:41.653Z,4.48
2018-01-25T08:43:09.169Z,4.34
2018-01-25T08:45:36.673Z,4.41
2018-01-25T08:48:04.324Z,4.36
2018-01-25T08:50:31.850Z,4.47
2018-01-25T08:52:59.414Z,4.59
2018-01-25T08:55:26.924Z,4.89
2018-01-25T08:57:54.440Z,5.15
2018-01-25T09:00:21.945Z,5.27
2018-01-25T09:02:49.465Z,5.35
2018-01-25T09:05:17.005Z,5.62
2018-01-25T09:07:44.540Z,5.83
2018-01-25T09:10:12.160Z,6.02
2018-01-25T09:12:39.685Z,6.10
2018-01-25T09:15:07.209Z,6.00
2018-01-25T09:17:34.728Z,5.64
2018-01-25T09:20:02.273Z,5.72
2018-01-25T09:22:29.779Z,6.16
2018-01-25T09:24:57.299Z,6.71
2018-01-25T09:27:24.824Z,7.00
2018-01-25T09:29:52.350Z,7.39
2018-01-25T09:32:19.884Z,7.34
2018-01-25T09:34:47.424Z,7.80
2018-01-25T09:37:14.948Z,8.05
2018-01-25T09:39:42.471Z,8.27
2018-01-25T09:42:10.133Z,8.17
2018-01-25T09:44:37.720Z,8.55
2018-01-25T09:47:05.240Z,8.30
2018-01-25T09:49:32.848Z,8.33
2018-01-25T09:52:00.380Z,8.55
2018-01-25T09:54:27.914Z,8.69
2018-01-25T09:56:55.410Z,9.00
2018-01-25T09:59:22.919Z,9.38
2018-01-25T10:01:50.450Z,8.97
2018-01-25T10:04:18.148Z,8.90
2018-01-25T10:06:45.683Z,9.31
2018-01-25T10:09:13.213Z,9.83
2018-01-25T10:11:40.755Z,10.58
2018-01-25T10:14:08.288Z,11.01
2018-01-25T10:16:35.838Z,10.49
2018-01-25T10:19:03.394Z,10.27
2018-01-25T10:21:30.940Z,10.06
2018-01-25T10:23:58.579Z,10.67
2018-01-25T10:26:26.099Z,11.32
2018-01-25T10:28:53.643Z,11.73
2018-01-25T10:31:21.173Z,11.23
2018-01-25T10:33:48.861Z,10.94
2018-01-25T10:36:16.408Z,11.64
2018-01-25T10:38:44.112Z,11.58
2018-01-25T10:41:11.623Z,11.36
2018-01-25T10:43:39.151Z,11.42
2018-01-25T10:46:06.698Z,12.28
2018-01-25T10:48:34.301Z,11.68
2018-01-25T10:51:01.839Z,12.50
2018-01-25T10:53:29.362Z,12.82
2018-01-25T10:55:56.923Z,12.88
2018-01-25T10:58:24.560Z,13.10
2018-01-25T11:00:57.908Z,12.83
2018-01-25T11:03:25.424Z,12.61
2018-01-25T11:05:52.950Z,13.06
2018-01-25T11:08:20.468Z,13.54
2018-01-25T11:10:49.058Z,13.28
2018-01-25T11:13:16.613Z,14.02
2018-01-25T11:15:44.146Z,14.68
2018-01-25T11:18:11.679Z,15.35
2018-01-25T11:20:39.199Z,15.22
2018-01-25T11:23:06.719Z,16.00
2018-01-25T11:25:34.235Z,15.49
2018-01-25T11:28:03.228Z,16.02
2018-01-25T11:30:30.740Z,16.70
2018-01-25T11:32:58.250Z,17.19
2018-01-25T11:35:25.769Z,17.77
2018-01-25T11:37:53.264Z,18.05
2018-01-25T11:40:20.793Z,17.43
2018-01-25T11:42:48.318Z,19.04
2018-01-25T11:45:15.820Z,19.42
2018-01-25T11:47:43.340Z,19.11
2018-01-25T11:50:10.855Z,17.23
2018-01-25T11:52:38.367Z,16.91
2018-01-25T11:55:05.885Z,16.00
2018-01-25T11:57:33.408Z,15.43
2018-01-25T12:00:00.928Z,16.03
2018-01-25T12:02:29.179Z,15.53
2018-01-25T12:04:56.698Z,14.81
2018-01-25T12:07:24.193Z,14.08
2018-01-25T12:09:51.709Z,14.21
2018-01-25T12:12:19.328Z,14.24
2018-01-25T12:14:46.840Z,13.89
2018-01-25T12:17:14.799Z,13.95
2018-01-25T12:19:42.340Z,13.50
2018-01-25T12:22:09.874Z,13.40
2018-01-25T12:24:37.374Z,13.52
2018-01-25T12:27:05.188Z,13.35
2018-01-25T12:29:32.717Z,13.60
2018-01-25T12:32:00.363Z,13.84
2018-01-25T12:34:27.889Z,13.59
2018-01-25T12:36:55.418Z,13.30
2018-01-25T12:39:22.941Z,12.90
2018-01-25T12:41:50.474Z,12.73
2018-01-25T12:44:18.006Z,12.90
2018-01-25T12:46:45.574Z,12.77
2018-01-25T12:49:13.083Z,12.98
2018-01-25T12:51:40.606Z,13.25
2018-01-25T12:54:08.120Z,13.24
2018-01-25T12:56:35.640Z,13.07
2018-01-25T12:59:03.163Z,13.01
2018-01-25T13:01:30.699Z,13.08
2018-01-25T13:03:58.267Z,13.04
2018-01-25T13:06:25.793Z,13.14
2018-01-25T13:08:53.343Z,13.27
2018-01-25T13:11:20.879Z,13.09
2018-01-25T13:13:48.415Z,12.97
2018-01-25T13:16:15.983Z,12.93
2018-01-25T13:18:43.513Z,12.96
2018-01-25T13:21:11.045Z,12.78
2018-01-25T13:23:38.555Z,12.84
2018-01-25T13:26:06.079Z,13.06
2018-01-25T13:28:33.607Z,13.20
2018-01-25T13:31:01.143Z,13.00
2018-01-25T13:33:34.285Z,13.18
2018-01-25T13:36:01.808Z,13.29
2018-01-25T13:38:29.328Z,13.66
2018-01-25T13:40:56.861Z,14.08
2018-01-25T13:43:24.416Z,14.47
2018-01-25T13:45:51.945Z,13.86
2018-01-25T13:48:19.474Z,13.92
2018-01-25T13:50:47.032Z,13.53
2018-01-25T13:53:14.565Z,13.20
2018-01-25T13:55:42.083Z,13.08
2018-01-25T13:58:09.603Z,13.20
2018-01-25T14:00:37.156Z,13.22
2018-01-25T14:03:04.674Z,13.20
2018-01-25T14:05:32.228Z,13.13
2018-01-25T14:07:59.803Z,13.25
2018-01-25T14:10:27.334Z,13.27
2018-01-25T14:12:54.863Z,13.43
2018-01-25T14:15:22.378Z,13.56
2018-01-25T14:17:49.985Z,13.57
2018-01-25T14:20:17.546Z,13.17
2018-01-25T14:22:45.074Z,13.09
2018-01-25T14:25:12.605Z,12.74
2018-01-25T14:27:40.114Z,12.54
2018-01-25T14:30:07.628Z,12.37
2018-01-25T14:32:35.167Z,12.38
2018-01-25T14:35:02.960Z,12.50
2018-01-25T14:37:30.495Z,12.30
2018-01-25T14:39:58.013Z,12.42
2018-01-25T14:42:25.531Z,12.43
2018-01-25T14:44:53.060Z,12.52
2018-01-25T14:47:20.601Z,12.46
2018-01-25T14:49:48.128Z,12.33
2018-01-25T14:52:15.660Z,12.42
2018-01-25T14:54:43.179Z,12.36
2018-01-25T14:57:10.715Z,12.27
2018-01-25T14:59:38.228Z,12.32
2018-01-25T15:02:05.755Z,12.61
2018-01-25T15:04:33.397Z,12.10
2018-01-25T15:07:01.178Z,11.92
2018-01-25T15:09:28.695Z,12.06
2018-01-25T15:11:56.211Z,11.98
2018-01-25T15:14:23.735Z,11.45
2018-01-25T15:16:51.285Z,11.66
2018-01-25T15:19:18.826Z,11.63
2018-01-25T15:21:46.356Z,10.93
2018-01-25T15:24:13.876Z,11.02
2018-01-25T15:26:47.145Z,11.06
2018-01-25T15:29:14.670Z,10.93
2018-01-25T15:31:42.180Z,10.80
2018-01-25T15:34:09.699Z,10.87
2018-01-25T15:36:37.245Z,10.77
2018-01-25T15:39:04.771Z,10.61
2018-01-25T15:41:32.289Z,10.51
2018-01-25T15:43:59.810Z,10.23
2018-01-25T15:46:27.331Z,10.08
2018-01-25T15:48:54.903Z,9.91
2018-01-25T15:51:22.401Z,9.68
2018-01-25T15:53:49.956Z,9.36
2018-01-25T15:56:17.779Z,9.19
2018-01-25T15:58:45.301Z,9.00
2018-01-25T16:01:12.820Z,8.83
2018-01-25T16:03:40.352Z,8.76
2018-01-25T16:06:07.850Z,8.59
2018-01-25T16:08:35.429Z,8.41
2018-01-25T16:11:02.961Z,8.33
2018-01-25T16:13:30.491Z,8.22
2018-01-25T16:15:58.005Z,7.78
2018-01-25T16:18:25.521Z,7.94
2018-01-25T16:20:53.245Z,7.85
2018-01-25T16:23:20.843Z,7.70
2018-01-25T16:25:48.452Z,7.64
2018-01-25T16:28:21.872Z,7.59
2018-01-25T16:30:49.454Z,7.54
2018-01-25T16:33:17.015Z,7.52
2018-01-25T16:35:44.531Z,7.42
2018-01-25T16:38:12.057Z,7.67
2018-01-25T16:40:39.580Z,7.56
2018-01-25T16:43:07.104Z,7.50
2018-01-25T16:45:34.689Z,7.27
2018-01-25T16:48:02.210Z,7.39
2018-01-25T16:50:29.740Z,7.17
2018-01-25T16:52:57.265Z,7.14
2018-01-25T16:55:24.783Z,7.16
2018-01-25T16:57:52.546Z,7.19
2018-01-25T17:00:20.070Z,7.27
2018-01-25T17:02:47.616Z,7.28
2018-01-25T17:05:15.374Z,7.28
2018-01-25T17:07:42.876Z,7.28
2018-01-25T17:10:10.412Z,7.14
2018-01-25T17:12:37.949Z,7.13
2018-01-25T17:15:05.475Z,6.96
2018-01-25T17:17:33.021Z,6.72
2018-01-25T17:20:00.586Z,6.64
2018-01-25T17:22:28.234Z,6.56
2018-01-25T17:24:55.791Z,6.58
2018-01-25T17:27:23.316Z,6.53
2018-01-25T17:29:50.835Z,6.62
2018-01-25T17:32:18.354Z,6.64
2018-01-25T17:34:45.901Z,6.67
2018-01-25T17:37:13.465Z,6.61
2018-01-25T17:39:40.986Z,6.50
2018-01-25T17:42:08.529Z,6.49
2018-01-25T17:44:36.071Z,6.65
2018-01-25T17:47:03.640Z,6.62
2018-01-25T17:49:31.235Z,6.50
2018-01-25T17:51:58.776Z,6.43
2018-01-25T17:54:26.344Z,6.43
2018-01-25T17:56:53.996Z,6.37
2018-01-25T17:59:21.547Z,6.13
2018-01-25T18:01:49.081Z,6.17
2018-01-25T18:04:16.620Z,5.85
2018-01-25T18:06:44.352Z,5.80
2018-01-25T18:09:12.011Z,5.71
2018-01-25T18:11:39.535Z,5.80
2018-01-25T18:14:07.065Z,5.85
2018-01-25T18:16:34.586Z,5.97
2018-01-25T18:19:02.126Z,5.58
2018-01-25T18:21:29.666Z,5.51
2018-01-25T18:23:57.269Z,5.52
2018-01-25T18:26:24.796Z,5.67
2018-01-25T18:28:52.333Z,5.64
2018-01-25T18:31:19.874Z,5.49
2018-01-25T18:33:47.426Z,5.46
2018-01-25T18:36:14.980Z,5.62
2018-01-25T18:38:42.516Z,5.42
2018-01-25T18:41:10.096Z,5.10
2018-01-25T18:43:37.706Z,5.02
2018-01-25T18:46:05.305Z,5.13
2018-01-25T18:48:32.839Z,5.31
2018-01-25T18:51:00.476Z,5.39
2018-01-25T18:53:28.055Z,5.45
2018-01-25T18:55:55.590Z,5.61
2018-01-25T18:58:23.123Z,5.65
2018-01-25T19:00:50.669Z,5.61
2018-01-25T19:03:18.204Z,5.53
2018-01-25T19:05:45.745Z,5.30
2018-01-25T19:08:13.284Z,5.47
2018-01-25T19:10:40.840Z,5.38
2018-01-25T19:13:08.382Z,5.53
2018-01-25T19:15:36.090Z,5.60
2018-01-25T19:18:03.646Z,5.54
2018-01-25T19:20:31.205Z,5.21
2018-01-25T19:22:58.767Z,5.37
2018-01-25T19:25:26.311Z,5.37
2018-01-25T19:27:53.885Z,5.41
2018-01-25T19:30:21.898Z,5.61
2018-01-25T19:32:49.468Z,5.42
2018-01-25T19:35:17.030Z,5.31
2018-01-25T19:37:44.570Z,5.48
2018-01-25T19:40:12.115Z,5.56
2018-01-25T19:42:40.196Z,5.63
2018-01-25T19:45:07.782Z,5.68
2018-01-25T19:47:35.387Z,5.54
2018-01-25T19:50:02.953Z,5.52
2018-01-25T19:52:30.526Z,5.25
2018-01-25T19:54:58.115Z,5.29
2018-01-25T19:57:25.649Z,5.37
2018-01-25T19:59:53.314Z,5.42
2018-01-25T20:02:21.081Z,5.45
2018-01-25T20:04:48.695Z,5.51
2018-01-25T20:07:16.392Z,5.34
2018-01-25T20:09:43.965Z,5.35
2018-01-25T20:12:11.527Z,5.50
2018-01-25T20:14:39.175Z,5.49
2018-01-25T20:17:06.722Z,5.50
2018-01-25T20:19:34.288Z,5.55
2018-01-25T20:22:01.875Z,5.43
2018-01-25T20:24:29.424Z,5.45
2018-01-25T20:26:56.959Z,5.69
2018-01-25T20:29:24.500Z,5.62
2018-01-25T20:31:52.060Z,5.72
2018-01-25T20:34:19.598Z,5.77
2018-01-25T20:36:47.151Z,5.68
2018-01-25T20:39:14.715Z,5.65
2018-01-25T20:41:42.245Z,5.62
2018-01-25T20:44:09.784Z,5.68
2018-01-25T20:46:37.406Z,5.63
2018-01-25T20:49:04.941Z,5.62
2018-01-25T20:51:32.484Z,5.59
2018-01-25T20:54:00.024Z,5.74
2018-01-25T20:56:27.591Z,5.69
2018-01-25T20:58:55.137Z,5.67
2018-01-25T21:01:22.687Z,5.49
2018-01-25T21:03:50.274Z,5.45
2018-01-25T21:06:17.876Z,5.37
2018-01-25T21:08:45.437Z,5.32
2018-01-25T21:11:12.992Z,5.45
2018-01-25T21:13:40.524Z,5.40
2018-01-25T21:16:08.077Z,5.54
2018-01-25T21:18:35.613Z,5.48
2018-01-25T21:21:03.176Z,5.46
2018-01-25T21:23:30.736Z,5.33
2018-01-25T21:25:58.331Z,5.38
2018-01-25T21:28:25.846Z,5.39
2018-01-25T21:30:53.473Z,5.37
2018-01-25T21:33:21.030Z,5.48
2018-01-25T21:35:48.573Z,5.53
2018-01-25T21:38:16.108Z,5.59
2018-01-25T21:40:43.624Z,5.47
2018-01-25T21:43:11.157Z,5.45
2018-01-25T21:45:38.686Z,5.44
2018-01-25T21:48:06.297Z,5.49
2018-01-25T21:50:33.831Z,5.46
2018-01-25T21:53:01.367Z,5.49
2018-01-25T21:55:28.904Z,5.62
2018-01-25T21:57:56.422Z,5.68
2018-01-25T22:00:23.955Z,5.55
2018-01-25T22:02:51.587Z,5.62
2018-01-25T22:05:19.195Z,5.50
2018-01-25T22:07:46.730Z,5.42
2018-01-25T22:10:14.266Z,5.50
2018-01-25T22:12:41.826Z,5.32
2018-01-25T22:15:09.375Z,5.18
2018-01-25T22:17:36.921Z,5.26
2018-01-25T22:20:04.468Z,5.31
2018-01-25T22:22:32.503Z,5.28
2018-01-25T22:25:00.026Z,5.26
2018-01-25T22:27:27.552Z,5.10
2018-01-25T22:29:55.210Z,5.07
2018-01-25T22:32:22.731Z,5.18
2018-01-25T22:34:50.249Z,5.14
2018-01-25T22:37:17.880Z,5.14
2018-01-25T22:39:45.415Z,5.00
2018-01-25T22:42:13.047Z,5.02
2018-01-25T22:44:40.586Z,5.05
2018-01-25T22:47:08.116Z,4.84
2018-01-25T22:49:35.650Z,4.89
2018-01-25T22:52:03.215Z,5.02
2018-01-25T22:54:30.751Z,4.92
2018-01-25T22:56:58.290Z,4.93
2018-01-25T22:59:25.834Z,4.98
2018-01-25T23:01:53.420Z,5.01
2018-01-25T23:04:20.976Z,5.01
2018-01-25T23:06:48.499Z,5.10
2018-01-25T23:09:16.020Z,5.02
2018-01-25T23:11:43.527Z,5.11
2018-01-25T23:14:11.064Z,5.12
2018-01-25T23:16:38.589Z,5.23
2018-01-25T23:19:06.106Z,4.87
2018-01-25T23:21:33.625Z,4.97
2018-01-25T23:24:01.167Z,5.09
2018-01-25T23:26:28.682Z,5.16
2018-01-25T23:28:56.210Z,4.99
2018-01-25T23:31:23.755Z,5.04
2018-01-25T23:33:51.287Z,5.07
2018-01-25T23:36:18.816Z,4.99
2018-01-25T23:38:46.350Z,5.14
2018-01-25T23:41:13.885Z,5.28
2018-01-25T23:43:41.377Z,5.15
2018-01-25T23:46:08.907Z,5.15
2018-01-25T23:48:36.431Z,5.18
2018-01-25T23:51:03.955Z,5.27
2018-01-25T23:53:31.531Z,5.30
2018-01-25T23:56:00.256Z,5.31
2018-01-25T23:58:27.860Z,5.39
